sensor_id;sensor_type;location;lat;lon;timestamp;pressure;altitude;pressure_sealevel;temperature;humidity
71457;BME280;59263;48.160;11.752;2023-02-10T00:01:26;97603.22;;;-5.48;100.00
71457;BME280;59263;48.160;11.752;2023-02-10T00:03:52;97608.25;;;-5.53;100.00
71457;BME280;59263;48.160;11.752;2023-02-10T00:06:19;97613.28;;;-5.50;100.00
71457;BME280;59263;48.160;11.752;2023-02-10T00:08:50;97604.06;;;-5.62;100.00
71457;BME280;59263;48.160;11.752;2023-02-10T00:11:16;97605.72;;;-5.61;100.00
71457;BME280;59263;48.160;11.752;2023-02-10T00:13:42;97615.81;;;-5.64;100.00
71457;BME280;59263;48.160;11.752;2023-02-10T00:16:10;97621.69;;;-5.57;100.00
71457;BME280;59263;48.160;11.752;2023-02-10T00:18:37;97624.22;;;-5.62;100.00
71457;BME280;59263;48.160;11.752;2023-02-10T00:21:08;97620.84;;;-5.64;100.00
71457;BME280;59263;48.160;11.752;2023-02-10T00:23:34;97633.47;;;-5.54;100.00
71457;BME280;59263;48.160;11.752;2023-02-10T00:26:07;97636.84;;;-5.58;100.00
71457;BME280;59263;48.160;11.752;2023-02-10T00:28:33;97614.16;;;-5.71;100.00
71457;BME280;59263;48.160;11.752;2023-02-10T00:31:11;97635.16;;;-5.53;100.00
71457;BME280;59263;48.160;11.752;2023-02-10T00:33:37;97641.03;;;-5.51;100.00
71457;BME280;59263;48.160;11.752;2023-02-10T00:36:07;97641.91;;;-5.52;100.00
71457;BME280;59263;48.160;11.752;2023-02-10T00:38:33;97634.31;;;-5.62;100.00
71457;BME280;59263;48.160;11.752;2023-02-10T00:41:06;97638.50;;;-5.64;100.00
71457;BME280;59263;48.160;11.752;2023-02-10T00:43:32;97646.91;;;-5.60;100.00
71457;BME280;59263;48.160;11.752;2023-02-10T00:45:58;97657.84;;;-5.56;100.00
71457;BME280;59263;48.160;11.752;2023-02-10T00:48:23;97653.66;;;-5.57;100.00
71457;BME280;59263;48.160;11.752;2023-02-10T00:50:49;97639.34;;;-5.68;100.00
71457;BME280;59263;48.160;11.752;2023-02-10T00:53:14;97655.34;;;-5.58;100.00
71457;BME280;59263;48.160;11.752;2023-02-10T00:55:40;97651.13;;;-5.61;100.00
71457;BME280;59263;48.160;11.752;2023-02-10T00:58:05;97666.28;;;-5.56;100.00
71457;BME280;59263;48.160;11.752;2023-02-10T01:00:30;97646.06;;;-5.61;100.00
71457;BME280;59263;48.160;11.752;2023-02-10T01:02:56;97642.72;;;-5.63;100.00
71457;BME280;59263;48.160;11.752;2023-02-10T01:05:21;97646.94;;;-5.55;100.00
71457;BME280;59263;48.160;11.752;2023-02-10T01:07:46;97662.06;;;-5.51;100.00
71457;BME280;59263;48.160;11.752;2023-02-10T01:10:12;97654.47;;;-5.49;100.00
71457;BME280;59263;48.160;11.752;2023-02-10T01:12:37;97662.91;;;-5.41;100.00
71457;BME280;59263;48.160;11.752;2023-02-10T01:15:02;97657.00;;;-5.49;100.00
71457;BME280;59263;48.160;11.752;2023-02-10T01:17:28;97667.09;;;-5.43;100.00
71457;BME280;59263;48.160;11.752;2023-02-10T01:19:53;97666.25;;;-5.39;100.00
71457;BME280;59263;48.160;11.752;2023-02-10T01:22:18;97678.00;;;-5.38;100.00
71457;BME280;59263;48.160;11.752;2023-02-10T01:24:44;97678.88;;;-5.36;100.00
71457;BME280;59263;48.160;11.752;2023-02-10T01:27:09;97654.47;;;-5.46;100.00
71457;BME280;59263;48.160;11.752;2023-02-10T01:29:34;97661.19;;;-5.42;100.00
71457;BME280;59263;48.160;11.752;2023-02-10T01:32:00;97672.97;;;-5.35;100.00
71457;BME280;59263;48.160;11.752;2023-02-10T01:34:25;97672.97;;;-5.38;100.00
71457;BME280;59263;48.160;11.752;2023-02-10T01:36:51;97662.91;;;-5.44;100.00
71457;BME280;59263;48.160;11.752;2023-02-10T01:39:17;97675.47;;;-5.30;100.00
71457;BME280;59263;48.160;11.752;2023-02-10T01:41:42;97670.47;;;-5.29;100.00
71457;BME280;59263;48.160;11.752;2023-02-10T01:46:46;97676.31;;;-5.27;100.00
71457;BME280;59263;48.160;11.752;2023-02-10T01:49:19;97668.75;;;-5.21;100.00
71457;BME280;59263;48.160;11.752;2023-02-10T01:51:52;97683.06;;;-5.14;100.00
71457;BME280;59263;48.160;11.752;2023-02-10T01:54:23;97674.66;;;-5.28;100.00
71457;BME280;59263;48.160;11.752;2023-02-10T01:56:50;97672.97;;;-5.32;100.00
71457;BME280;59263;48.160;11.752;2023-02-10T01:59:17;97681.41;;;-5.30;100.00
71457;BME280;59263;48.160;11.752;2023-02-10T02:01:44;97674.66;;;-5.34;100.00
71457;BME280;59263;48.160;11.752;2023-02-10T02:04:10;97686.41;;;-5.24;100.00
71457;BME280;59263;48.160;11.752;2023-02-10T02:06:36;97681.38;;;-5.12;100.00
71457;BME280;59263;48.160;11.752;2023-02-10T02:09:02;97665.41;;;-5.26;100.00
71457;BME280;59263;48.160;11.752;2023-02-10T02:23:14;97704.09;;;-5.07;100.00
71457;BME280;59263;48.160;11.752;2023-02-10T02:31:44;97704.06;;;-4.98;100.00
71457;BME280;59263;48.160;11.752;2023-02-10T02:37:23;97686.41;;;-5.08;100.00
71457;BME280;59263;48.160;11.752;2023-02-10T02:39:52;97713.31;;;-5.04;100.00
71457;BME280;59263;48.160;11.752;2023-02-10T02:42:23;97705.75;;;-5.11;100.00
71457;BME280;59263;48.160;11.752;2023-02-10T02:44:56;97709.97;;;-5.19;100.00
71457;BME280;59263;48.160;11.752;2023-02-10T02:50:26;97710.81;;;-5.27;100.00
71457;BME280;59263;48.160;11.752;2023-02-10T02:58:39;97718.41;;;-5.26;100.00
71457;BME280;59263;48.160;11.752;2023-02-10T03:01:15;97720.06;;;-5.28;100.00
71457;BME280;59263;48.160;11.752;2023-02-10T03:03:41;97711.66;;;-5.33;100.00
71457;BME280;59263;48.160;11.752;2023-02-10T03:06:07;97709.97;;;-5.32;100.00
71457;BME280;59263;48.160;11.752;2023-02-10T03:08:34;97713.34;;;-5.32;100.00
71457;BME280;59263;48.160;11.752;2023-02-10T03:11:01;97701.56;;;-5.42;100.00
71457;BME280;59263;48.160;11.752;2023-02-10T03:13:26;97700.72;;;-5.40;100.00
71457;BME280;59263;48.160;11.752;2023-02-10T03:15:51;97690.63;;;-5.46;100.00
71457;BME280;59263;48.160;11.752;2023-02-10T03:18:17;97703.25;;;-5.37;100.00
71457;BME280;59263;48.160;11.752;2023-02-10T03:20:42;97702.41;;;-5.29;100.00
71457;BME280;59263;48.160;11.752;2023-02-10T03:23:09;97691.50;;;-5.30;100.00
71457;BME280;59263;48.160;11.752;2023-02-10T03:25:34;97699.03;;;-5.27;100.00
71457;BME280;59263;48.160;11.752;2023-02-10T03:27:59;97696.53;;;-5.22;100.00
71457;BME280;59263;48.160;11.752;2023-02-10T03:30:25;97701.56;;;-5.18;100.00
71457;BME280;59263;48.160;11.752;2023-02-10T03:32:50;97694.84;;;-5.25;100.00
71457;BME280;59263;48.160;11.752;2023-02-10T03:35:18;97695.69;;;-5.33;100.00
71457;BME280;59263;48.160;11.752;2023-02-10T03:37:44;97722.56;;;-5.34;100.00
71457;BME280;59263;48.160;11.752;2023-02-10T03:40:10;97712.50;;;-5.48;100.00
71457;BME280;59263;48.160;11.752;2023-02-10T03:42:35;97715.03;;;-5.37;100.00
71457;BME280;59263;48.160;11.752;2023-02-10T03:45:00;97722.59;;;-5.26;100.00
71457;BME280;59263;48.160;11.752;2023-02-10T03:47:26;97713.34;;;-5.37;100.00
71457;BME280;59263;48.160;11.752;2023-02-10T03:49:51;97722.59;;;-5.40;100.00
71457;BME280;59263;48.160;11.752;2023-02-10T03:52:16;97732.69;;;-5.40;100.00
71457;BME280;59263;48.160;11.752;2023-02-10T03:54:42;97731.84;;;-5.41;100.00
71457;BME280;59263;48.160;11.752;2023-02-10T03:57:07;97736.03;;;-5.47;100.00
71457;BME280;59263;48.160;11.752;2023-02-10T03:59:32;97732.66;;;-5.58;100.00
71457;BME280;59263;48.160;11.752;2023-02-10T04:01:58;97712.47;;;-5.69;100.00
71457;BME280;59263;48.160;11.752;2023-02-10T04:04:23;97724.22;;;-5.70;100.00
71457;BME280;59263;48.160;11.752;2023-02-10T04:06:48;97722.56;;;-5.74;100.00
71457;BME280;59263;48.160;11.752;2023-02-10T04:09:14;97716.66;;;-5.76;100.00
71457;BME280;59263;48.160;11.752;2023-02-10T04:11:39;97721.69;;;-5.76;100.00
71457;BME280;59263;48.160;11.752;2023-02-10T04:14:04;97721.69;;;-5.82;100.00
71457;BME280;59263;48.160;11.752;2023-02-10T04:16:30;97716.63;;;-5.88;100.00
71457;BME280;59263;48.160;11.752;2023-02-10T04:18:57;97725.88;;;-5.86;100.00
71457;BME280;59263;48.160;11.752;2023-02-10T04:21:22;97731.78;;;-5.82;100.00
71457;BME280;59263;48.160;11.752;2023-02-10T04:23:49;97730.09;;;-5.85;100.00
71457;BME280;59263;48.160;11.752;2023-02-10T04:26:15;97720.84;;;-5.89;100.00
71457;BME280;59263;48.160;11.752;2023-02-10T04:28:40;97721.66;;;-5.90;100.00
71457;BME280;59263;48.160;11.752;2023-02-10T04:31:05;97728.41;;;-5.72;100.00
71457;BME280;59263;48.160;11.752;2023-02-10T04:33:31;97734.31;;;-5.68;100.00
71457;BME280;59263;48.160;11.752;2023-02-10T04:35:56;97743.56;;;-5.53;100.00
71457;BME280;59263;48.160;11.752;2023-02-10T04:38:23;97736.88;;;-5.48;100.00
71457;BME280;59263;48.160;11.752;2023-02-10T04:40:48;97732.66;;;-5.43;100.00
71457;BME280;59263;48.160;11.752;2023-02-10T04:43:13;97742.75;;;-5.34;100.00
71457;BME280;59263;48.160;11.752;2023-02-10T04:45:39;97729.31;;;-5.44;100.00
71457;BME280;59263;48.160;11.752;2023-02-10T04:48:05;97748.66;;;-5.41;100.00
71457;BME280;59263;48.160;11.752;2023-02-10T04:50:30;97741.88;;;-5.57;100.00
71457;BME280;59263;48.160;11.752;2023-02-10T04:52:56;97742.72;;;-5.68;100.00
71457;BME280;59263;48.160;11.752;2023-02-10T04:55:21;97745.25;;;-5.58;100.00
71457;BME280;59263;48.160;11.752;2023-02-10T04:57:47;97746.09;;;-5.63;100.00
71457;BME280;59263;48.160;11.752;2023-02-10T05:00:13;97751.97;;;-5.64;100.00
71457;BME280;59263;48.160;11.752;2023-02-10T05:02:38;97752.75;;;-5.78;100.00
71457;BME280;59263;48.160;11.752;2023-02-10T05:05:05;97756.97;;;-5.88;100.00
71457;BME280;59263;48.160;11.752;2023-02-10T05:07:30;97751.91;;;-5.99;100.00
71457;BME280;59263;48.160;11.752;2023-02-10T05:09:56;97748.53;;;-6.02;100.00
71457;BME280;59263;48.160;11.752;2023-02-10T05:12:21;97756.06;;;-6.10;100.00
71457;BME280;59263;48.160;11.752;2023-02-10T05:14:46;97757.72;;;-6.17;100.00
71457;BME280;59263;48.160;11.752;2023-02-10T05:17:11;97763.59;;;-6.18;100.00
71457;BME280;59263;48.160;11.752;2023-02-10T05:19:37;97762.75;;;-6.21;100.00
71457;BME280;59263;48.160;11.752;2023-02-10T05:22:02;97765.25;;;-6.26;100.00
71457;BME280;59263;48.160;11.752;2023-02-10T05:24:27;97771.97;;;-6.22;100.00
71457;BME280;59263;48.160;11.752;2023-02-10T05:26:53;97750.06;;;-6.38;100.00
71457;BME280;59263;48.160;11.752;2023-02-10T05:29:18;97776.09;;;-6.36;100.00
71457;BME280;59263;48.160;11.752;2023-02-10T05:31:43;97781.16;;;-6.38;100.00
71457;BME280;59263;48.160;11.752;2023-02-10T05:34:08;97753.31;;;-6.58;100.00
71457;BME280;59263;48.160;11.752;2023-02-10T05:36:34;97786.19;;;-6.38;100.00
71457;BME280;59263;48.160;11.752;2023-02-10T05:38:59;97797.09;;;-6.37;100.00
71457;BME280;59263;48.160;11.752;2023-02-10T05:41:43;97789.50;;;-6.43;100.00
71457;BME280;59263;48.160;11.752;2023-02-10T05:44:09;97788.66;;;-6.42;100.00
71457;BME280;59263;48.160;11.752;2023-02-10T05:46:34;97802.91;;;-6.43;100.00
71457;BME280;59263;48.160;11.752;2023-02-10T05:48:59;97787.81;;;-6.44;100.00
71457;BME280;59263;48.160;11.752;2023-02-10T05:51:25;97799.56;;;-6.42;100.00
71457;BME280;59263;48.160;11.752;2023-02-10T05:53:50;97807.13;;;-6.40;100.00
71457;BME280;59263;48.160;11.752;2023-02-10T05:56:15;97793.75;;;-6.33;100.00
71457;BME280;59263;48.160;11.752;2023-02-10T05:58:41;97809.69;;;-6.31;100.00
71457;BME280;59263;48.160;11.752;2023-02-10T06:01:08;97788.63;;;-6.45;100.00
71457;BME280;59263;48.160;11.752;2023-02-10T06:03:34;97812.25;;;-6.28;100.00
71457;BME280;59263;48.160;11.752;2023-02-10T06:05:59;97805.56;;;-6.17;100.00
71457;BME280;59263;48.160;11.752;2023-02-10T06:08:25;97812.34;;;-6.06;100.00
71457;BME280;59263;48.160;11.752;2023-02-10T06:10:51;97816.53;;;-6.10;100.00
71457;BME280;59263;48.160;11.752;2023-02-10T06:13:16;97805.56;;;-6.17;100.00
71457;BME280;59263;48.160;11.752;2023-02-10T06:15:41;97814.88;;;-6.08;100.00
71457;BME280;59263;48.160;11.752;2023-02-10T06:18:07;97814.00;;;-6.15;100.00
71457;BME280;59263;48.160;11.752;2023-02-10T06:20:32;97816.50;;;-6.16;100.00
71457;BME280;59263;48.160;11.752;2023-02-10T06:22:57;97808.88;;;-6.30;100.00
71457;BME280;59263;48.160;11.752;2023-02-10T06:25:23;97824.81;;;-6.28;100.00
71457;BME280;59263;48.160;11.752;2023-02-10T06:27:48;97834.06;;;-6.30;100.00
71457;BME280;59263;48.160;11.752;2023-02-10T06:30:13;97826.47;;;-6.35;100.00
71457;BME280;59263;48.160;11.752;2023-02-10T06:32:38;97811.28;;;-6.51;100.00
71457;BME280;59263;48.160;11.752;2023-02-10T06:35:04;97833.97;;;-6.44;100.00
71457;BME280;59263;48.160;11.752;2023-02-10T06:37:29;97825.56;;;-6.47;100.00
71457;BME280;59263;48.160;11.752;2023-02-10T06:39:55;97832.31;;;-6.40;100.00
71457;BME280;59263;48.160;11.752;2023-02-10T06:42:20;97834.84;;;-6.40;100.00
71457;BME280;59263;48.160;11.752;2023-02-10T06:44:46;97835.69;;;-6.38;100.00
71457;BME280;59263;48.160;11.752;2023-02-10T06:47:11;97828.94;;;-6.42;100.00
71457;BME280;59263;48.160;11.752;2023-02-10T06:49:36;97853.34;;;-6.32;100.00
71457;BME280;59263;48.160;11.752;2023-02-10T06:52:02;97854.19;;;-6.33;100.00
71457;BME280;59263;48.160;11.752;2023-02-10T06:54:28;97866.81;;;-6.24;100.00
71457;BME280;59263;48.160;11.752;2023-02-10T06:56:54;97866.00;;;-6.24;100.00
71457;BME280;59263;48.160;11.752;2023-02-10T06:59:19;97864.34;;;-6.18;100.00
71457;BME280;59263;48.160;11.752;2023-02-10T07:01:46;97863.53;;;-6.12;100.00
71457;BME280;59263;48.160;11.752;2023-02-10T07:04:11;97847.56;;;-6.16;100.00
71457;BME280;59263;48.160;11.752;2023-02-10T07:06:37;97860.25;;;-5.97;100.00
71457;BME280;59263;48.160;11.752;2023-02-10T07:09:02;97858.59;;;-5.89;100.00
71457;BME280;59263;48.160;11.752;2023-02-10T07:11:29;97867.00;;;-5.89;100.00
71457;BME280;59263;48.160;11.752;2023-02-10T07:13:55;97877.16;;;-5.72;100.00
71457;BME280;59263;48.160;11.752;2023-02-10T07:16:21;97872.97;;;-5.70;100.00
71457;BME280;59263;48.160;11.752;2023-02-10T07:18:46;97846.88;;;-5.79;100.00
71457;BME280;59263;48.160;11.752;2023-02-10T07:21:11;97874.69;;;-5.56;100.00
71457;BME280;59263;48.160;11.752;2023-02-10T07:23:37;97871.38;;;-5.46;100.00
71457;BME280;59263;48.160;11.752;2023-02-10T07:26:04;97871.38;;;-5.43;100.00
71457;BME280;59263;48.160;11.752;2023-02-10T07:28:29;97881.50;;;-5.28;100.00
71457;BME280;59263;48.160;11.752;2023-02-10T07:30:55;97880.72;;;-5.12;100.00
71457;BME280;59263;48.160;11.752;2023-02-10T07:33:20;97863.06;;;-5.02;100.00
71457;BME280;59263;48.160;11.752;2023-02-10T07:35:47;97890.00;;;-4.78;100.00
71457;BME280;59263;48.160;11.752;2023-02-10T07:38:13;97879.91;;;-4.60;100.00
71457;BME280;59263;48.160;11.752;2023-02-10T07:40:39;97881.59;;;-4.50;100.00
71457;BME280;59263;48.160;11.752;2023-02-10T07:43:04;97890.03;;;-4.43;100.00
71457;BME280;59263;48.160;11.752;2023-02-10T07:45:29;97889.16;;;-4.31;100.00
71457;BME280;59263;48.160;11.752;2023-02-10T07:47:58;97881.59;;;-4.30;100.00
71457;BME280;59263;48.160;11.752;2023-02-10T07:50:24;97887.47;;;-4.17;100.00
71457;BME280;59263;48.160;11.752;2023-02-10T07:52:49;97901.78;;;-4.05;100.00
71457;BME280;59263;48.160;11.752;2023-02-10T07:55:15;97905.13;;;-3.97;100.00
71457;BME280;59263;48.160;11.752;2023-02-10T07:57:40;97909.34;;;-3.99;100.00
71457;BME280;59263;48.160;11.752;2023-02-10T08:00:07;97901.78;;;-3.96;100.00
71457;BME280;59263;48.160;11.752;2023-02-10T08:02:33;97908.50;;;-3.89;100.00
71457;BME280;59263;48.160;11.752;2023-02-10T08:04:59;97903.44;;;-3.89;100.00
71457;BME280;59263;48.160;11.752;2023-02-10T08:07:24;97919.41;;;-3.76;100.00
71457;BME280;59263;48.160;11.752;2023-02-10T08:09:50;97916.88;;;-3.66;100.00
71457;BME280;59263;48.160;11.752;2023-02-10T08:12:15;97904.19;;;-3.67;100.00
71457;BME280;59263;48.160;11.752;2023-02-10T08:14:40;97915.13;;;-3.51;100.00
71457;BME280;59263;48.160;11.752;2023-02-10T08:17:06;97921.03;;;-3.48;100.00
71457;BME280;59263;48.160;11.752;2023-02-10T08:19:31;97908.38;;;-3.52;100.00
71457;BME280;59263;48.160;11.752;2023-02-10T08:21:57;97922.66;;;-3.37;100.00
71457;BME280;59263;48.160;11.752;2023-02-10T08:24:22;97913.34;;;-3.34;100.00
71457;BME280;59263;48.160;11.752;2023-02-10T08:26:48;97911.66;;;-3.26;100.00
71457;BME280;59263;48.160;11.752;2023-02-10T08:29:13;97900.63;;;-3.14;100.00
71457;BME280;59263;48.160;11.752;2023-02-10T08:31:39;97910.63;;;-2.93;100.00
71457;BME280;59263;48.160;11.752;2023-02-10T08:34:04;97914.81;;;-2.87;100.00
71457;BME280;59263;48.160;11.752;2023-02-10T08:36:29;97913.09;;;-2.82;100.00
71457;BME280;59263;48.160;11.752;2023-02-10T08:38:56;97897.81;;;-2.70;100.00
71457;BME280;59263;48.160;11.752;2023-02-10T08:41:21;97901.09;;;-2.55;100.00
71457;BME280;59263;48.160;11.752;2023-02-10T08:43:47;97893.41;;;-2.45;100.00
71457;BME280;59263;48.160;11.752;2023-02-10T08:46:12;97896.69;;;-2.35;100.00
71457;BME280;59263;48.160;11.752;2023-02-10T08:48:37;97892.38;;;-2.24;100.00
71457;BME280;59263;48.160;11.752;2023-02-10T08:51:14;97885.47;;;-2.06;100.00
71457;BME280;59263;48.160;11.752;2023-02-10T08:53:40;97881.94;;;-1.93;100.00
71457;BME280;59263;48.160;11.752;2023-02-10T08:56:08;97867.59;;;-1.92;100.00
71457;BME280;59263;48.160;11.752;2023-02-10T08:58:34;97890.16;;;-1.69;100.00
71457;BME280;59263;48.160;11.752;2023-02-10T09:01:07;97894.28;;;-1.61;100.00
71457;BME280;59263;48.160;11.752;2023-02-10T09:03:33;97889.13;;;-1.53;100.00
71457;BME280;59263;48.160;11.752;2023-02-10T09:05:58;97884.00;;;-1.50;100.00
71457;BME280;59263;48.160;11.752;2023-02-10T09:08:23;97904.97;;;-1.33;100.00
71457;BME280;59263;48.160;11.752;2023-02-10T09:10:49;97905.72;;;-1.26;100.00
71457;BME280;59263;48.160;11.752;2023-02-10T09:13:14;97897.19;;;-1.20;100.00
71457;BME280;59263;48.160;11.752;2023-02-10T09:15:41;97902.94;;;-1.06;100.00
71457;BME280;59263;48.160;11.752;2023-02-10T09:18:08;97902.06;;;-1.04;100.00
71457;BME280;59263;48.160;11.752;2023-02-10T09:20:35;97894.38;;;-0.99;100.00
71457;BME280;59263;48.160;11.752;2023-02-10T09:23:01;97897.59;;;-0.88;100.00
71457;BME280;59263;48.160;11.752;2023-02-10T09:25:26;97900.88;;;-0.80;100.00
71457;BME280;59263;48.160;11.752;2023-02-10T09:27:54;97895.69;;;-0.74;100.00
71457;BME280;59263;48.160;11.752;2023-02-10T09:30:23;97885.53;;;-0.74;100.00
71457;BME280;59263;48.160;11.752;2023-02-10T09:32:48;97896.28;;;-0.56;100.00
71457;BME280;59263;48.160;11.752;2023-02-10T09:35:13;97886.88;;;-0.51;100.00
71457;BME280;59263;48.160;11.752;2023-02-10T09:37:39;97896.91;;;-0.42;100.00
71457;BME280;59263;48.160;11.752;2023-02-10T09:40:04;97905.09;;;-0.25;100.00
71457;BME280;59263;48.160;11.752;2023-02-10T09:42:45;97901.56;;;-0.14;100.00
71457;BME280;59263;48.160;11.752;2023-02-10T09:45:19;97902.91;;;0.05;100.00
71457;BME280;59263;48.160;11.752;2023-02-10T09:50:59;97906.03;;;0.19;100.00
71457;BME280;59263;48.160;11.752;2023-02-10T09:53:30;97914.47;;;0.21;100.00
71457;BME280;59263;48.160;11.752;2023-02-10T09:55:57;97910.94;;;0.29;100.00
71457;BME280;59263;48.160;11.752;2023-02-10T10:03:54;97911.53;;;0.43;100.00
71457;BME280;59263;48.160;11.752;2023-02-10T10:06:33;97890.44;;;0.38;100.00
71457;BME280;59263;48.160;11.752;2023-02-10T10:11:47;97913.69;;;0.64;100.00
71457;BME280;59263;48.160;11.752;2023-02-10T10:19:55;97911.75;;;0.76;100.00
71457;BME280;59263;48.160;11.752;2023-02-10T10:22:35;97898.97;;;0.79;100.00
71457;BME280;59263;48.160;11.752;2023-02-10T10:28:21;97894.25;;;0.99;100.00
71457;BME280;59263;48.160;11.752;2023-02-10T10:30:55;97882.34;;;1.01;100.00
71457;BME280;59263;48.160;11.752;2023-02-10T10:33:32;97888.91;;;1.11;100.00
71457;BME280;59263;48.160;11.752;2023-02-10T10:36:00;97876.84;;;1.19;100.00
71457;BME280;59263;48.160;11.752;2023-02-10T10:38:32;97876.66;;;1.27;100.00
71457;BME280;59263;48.160;11.752;2023-02-10T10:41:02;97873.13;;;1.33;100.00
71457;BME280;59263;48.160;11.752;2023-02-10T10:43:31;97876.50;;;1.33;100.00
71457;BME280;59263;48.160;11.752;2023-02-10T10:46:06;97867.81;;;1.42;100.00
71457;BME280;59263;48.160;11.752;2023-02-10T10:48:37;97866.16;;;1.41;100.00
71457;BME280;59263;48.160;11.752;2023-02-10T10:51:05;97870.88;;;1.56;100.00
71457;BME280;59263;48.160;11.752;2023-02-10T10:53:56;97862.28;;;1.60;100.00
71457;BME280;59263;48.160;11.752;2023-02-10T10:58:56;97856.16;;;1.67;100.00
71457;BME280;59263;48.160;11.752;2023-02-10T11:01:34;97849.91;;;1.78;100.00
71457;BME280;59263;48.160;11.752;2023-02-10T11:04:11;97831.13;;;1.82;100.00
71457;BME280;59263;48.160;11.752;2023-02-10T11:06:38;97827.50;;;1.89;100.00
71457;BME280;59263;48.160;11.752;2023-02-10T11:09:14;97823.63;;;2.08;100.00
71457;BME280;59263;48.160;11.752;2023-02-10T11:11:42;97831.97;;;2.13;100.00
71457;BME280;59263;48.160;11.752;2023-02-10T11:14:14;97827.56;;;2.18;100.00
71457;BME280;59263;48.160;11.752;2023-02-10T11:16:59;97809.00;;;2.13;100.00
71457;BME280;59263;48.160;11.752;2023-02-10T11:19:32;97809.00;;;2.13;100.00
71457;BME280;59263;48.160;11.752;2023-02-10T11:21:58;97804.59;;;2.18;100.00
71457;BME280;59263;48.160;11.752;2023-02-10T11:24:29;97803.00;;;2.14;100.00
71457;BME280;59263;48.160;11.752;2023-02-10T11:27:11;97800.28;;;2.21;100.00
71457;BME280;59263;48.160;11.752;2023-02-10T11:29:47;97803.38;;;2.32;100.00
71457;BME280;59263;48.160;11.752;2023-02-10T11:32:30;97782.19;;;2.28;100.00
71457;BME280;59263;48.160;11.752;2023-02-10T11:34:59;97798.19;;;2.35;100.00
71457;BME280;59263;48.160;11.752;2023-02-10T11:37:32;97803.75;;;2.49;100.00
71457;BME280;59263;48.160;11.752;2023-02-10T11:39:59;97789.25;;;2.50;100.00
71457;BME280;59263;48.160;11.752;2023-02-10T11:42:28;97786.72;;;2.48;100.00
71457;BME280;59263;48.160;11.752;2023-02-10T11:44:58;97778.00;;;2.55;100.00
71457;BME280;59263;48.160;11.752;2023-02-10T11:47:30;97785.19;;;2.71;100.00
71457;BME280;59263;48.160;11.752;2023-02-10T11:49:55;97780.97;;;2.70;100.00
71457;BME280;59263;48.160;11.752;2023-02-10T11:52:22;97775.69;;;2.76;100.00
71457;BME280;59263;48.160;11.752;2023-02-10T11:54:50;97776.13;;;2.88;100.00
71457;BME280;59263;48.160;11.752;2023-02-10T12:11:00;97768.69;;;3.09;100.00
71457;BME280;59263;48.160;11.752;2023-02-10T12:21:51;97760.59;;;3.23;100.00
71457;BME280;59263;48.160;11.752;2023-02-10T12:33:06;97751.59;;;3.36;100.00
71457;BME280;59263;48.160;11.752;2023-02-10T12:35:40;97754.66;;;3.47;100.00
71457;BME280;59263;48.160;11.752;2023-02-10T12:43:49;97747.66;;;3.52;100.00
71457;BME280;59263;48.160;11.752;2023-02-10T12:50:04;97737.09;;;3.61;100.00
71457;BME280;59263;48.160;11.752;2023-02-10T12:52:05;97744.53;;;3.69;100.00
71457;BME280;59263;48.160;11.752;2023-02-10T12:57:46;97727.06;;;3.80;100.00
71457;BME280;59263;48.160;11.752;2023-02-10T13:00:14;97743.81;;;3.89;100.00
71457;BME280;59263;48.160;11.752;2023-02-10T13:02:52;97716.91;;;3.77;100.00
71457;BME280;59263;48.160;11.752;2023-02-10T13:05:28;97737.59;;;3.96;100.00
71457;BME280;59263;48.160;11.752;2023-02-10T13:07:58;97732.00;;;3.85;100.00
71457;BME280;59263;48.160;11.752;2023-02-10T13:10:35;97725.78;;;3.92;100.00
71457;BME280;59263;48.160;11.752;2023-02-10T13:13:05;97716.06;;;4.02;100.00
71457;BME280;59263;48.160;11.752;2023-02-10T13:15:41;97721.78;;;4.08;100.00
71457;BME280;59263;48.160;11.752;2023-02-10T13:18:27;97700.91;;;3.96;100.00
71457;BME280;59263;48.160;11.752;2023-02-10T13:21:15;97709.19;;;4.02;100.00
71457;BME280;59263;48.160;11.752;2023-02-10T13:23:48;97703.69;;;4.13;100.00
71457;BME280;59263;48.160;11.752;2023-02-10T13:34:28;97716.22;;;4.21;100.00
71457;BME280;59263;48.160;11.752;2023-02-10T13:37:04;97704.41;;;4.17;100.00
71457;BME280;59263;48.160;11.752;2023-02-10T13:39:31;97715.03;;;4.06;100.00
71457;BME280;59263;48.160;11.752;2023-02-10T13:42:14;97715.84;;;4.08;100.00
71457;BME280;59263;48.160;11.752;2023-02-10T13:44:41;97707.44;;;4.04;100.00
71457;BME280;59263;48.160;11.752;2023-02-10T13:49:33;97707.53;;;4.01;100.00
71457;BME280;59263;48.160;11.752;2023-02-10T13:52:03;97714.97;;;4.07;100.00
71457;BME280;59263;48.160;11.752;2023-02-10T13:54:32;97698.78;;;4.07;100.00
71457;BME280;59263;48.160;11.752;2023-02-10T13:56:58;97687.88;;;4.02;100.00
71457;BME280;59263;48.160;11.752;2023-02-10T13:59:42;97692.81;;;4.06;100.00
71457;BME280;59263;48.160;11.752;2023-02-10T14:02:20;97705.25;;;4.17;100.00
71457;BME280;59263;48.160;11.752;2023-02-10T14:04:49;97697.66;;;4.14;100.00
71457;BME280;59263;48.160;11.752;2023-02-10T14:07:32;97696.03;;;4.11;100.00
71457;BME280;59263;48.160;11.752;2023-02-10T14:13:27;97692.03;;;4.28;100.00
71457;BME280;59263;48.160;11.752;2023-02-10T14:16:00;97701.06;;;4.15;100.00
71457;BME280;59263;48.160;11.752;2023-02-10T14:18:37;97693.38;;;4.15;100.00
71457;BME280;59263;48.160;11.752;2023-02-10T14:21:06;97701.28;;;4.32;100.00
71457;BME280;59263;48.160;11.752;2023-02-10T14:23:35;97696.47;;;4.46;100.00
71457;BME280;59263;48.160;11.752;2023-02-10T14:26:07;97703.03;;;4.53;100.00
71457;BME280;59263;48.160;11.752;2023-02-10T14:28:38;97709.31;;;4.67;100.00
71457;BME280;59263;48.160;11.752;2023-02-10T14:31:13;97699.47;;;5.00;100.00
71457;BME280;59263;48.160;11.752;2023-02-10T14:33:40;97698.00;;;4.94;100.00
71457;BME280;59263;48.160;11.752;2023-02-10T14:36:18;97706.84;;;5.48;100.00
71457;BME280;59263;48.160;11.752;2023-02-10T14:38:44;97698.31;;;6.07;100.00